createdAt,value
2018-02-23T00:00:25.444Z,10.48
2018-02-23T00:01:29.903Z,9.43
2018-02-23T00:02:34.369Z,10.45
2018-02-23T00:03:38.820Z,9.57
2018-02-23T00:04:43.085Z,10.25
2018-02-23T00:05:48.298Z,10.73
2018-02-23T00:06:52.761Z,10.55
2018-02-23T00:07:56.580Z,10.98
2018-02-23T00:09:01.018Z,9.85
2018-02-23T00:10:05.468Z,9.82
2018-02-23T00:11:10.686Z,10.25
2018-02-23T00:12:15.905Z,10.23
2018-02-23T00:13:20.385Z,9.85
2018-02-23T00:14:24.837Z,11.57
2018-02-23T00:15:30.073Z,10.48
2018-02-23T00:16:35.111Z,9.80
2018-02-23T00:17:39.422Z,9.30
2018-02-23T00:18:43.904Z,10.43
2018-02-23T00:19:48.361Z,10.10
2018-02-23T00:20:52.826Z,10.38
2018-02-23T00:21:57.296Z,10.15
2018-02-23T00:23:01.733Z,9.20
2018-02-23T00:24:06.226Z,11.63
2018-02-23T00:25:10.674Z,10.43
2018-02-23T00:26:15.941Z,10.25
2018-02-23T00:27:20.553Z,10.05
2018-02-23T00:28:25.006Z,11.10
2018-02-23T00:29:29.482Z,10.50
2018-02-23T00:30:33.939Z,10.00
2018-02-23T00:31:38.402Z,10.52
2018-02-23T00:32:42.859Z,10.02
2018-02-23T00:33:47.303Z,9.80
2018-02-23T00:34:52.545Z,10.63
2018-02-23T00:35:57.004Z,9.40
2018-02-23T00:37:01.500Z,11.50
2018-02-23T00:38:05.963Z,11.02
2018-02-23T00:39:11.181Z,11.27
2018-02-23T00:40:16.432Z,10.55
2018-02-23T00:41:21.641Z,10.32
2018-02-23T00:42:26.868Z,11.20
2018-02-23T00:43:32.093Z,11.15
2018-02-23T00:44:36.541Z,11.00
2018-02-23T00:45:41.029Z,10.50
2018-02-23T00:46:46.266Z,11.82
2018-02-23T00:47:51.489Z,10.60
2018-02-23T00:48:56.311Z,11.10
2018-02-23T00:50:01.536Z,11.93
2018-02-23T00:51:06.773Z,11.35
2018-02-23T00:52:11.235Z,11.00
2018-02-23T00:53:15.685Z,9.90
2018-02-23T00:54:20.906Z,11.25
2018-02-23T00:55:26.125Z,11.80
2018-02-23T00:56:30.602Z,11.20
2018-02-23T00:57:35.051Z,11.20
2018-02-23T00:58:39.518Z,10.77
2018-02-23T00:59:43.993Z,11.55
2018-02-23T01:00:49.260Z,10.95
2018-02-23T01:01:53.741Z,11.25
2018-02-23T01:02:58.281Z,10.55
2018-02-23T01:04:02.737Z,10.98
2018-02-23T01:05:07.193Z,10.82
2018-02-23T01:06:11.664Z,11.43
2018-02-23T01:07:16.925Z,11.57
2018-02-23T01:08:21.376Z,9.98
2018-02-23T01:09:26.164Z,10.95
2018-02-23T01:10:30.617Z,11.20
2018-02-23T01:11:35.084Z,10.20
2018-02-23T01:12:39.570Z,12.27
2018-02-23T01:13:44.790Z,10.80
2018-02-23T01:14:50.019Z,10.65
2018-02-23T01:15:55.248Z,11.98
2018-02-23T01:17:00.469Z,11.98
2018-02-23T01:18:04.746Z,11.70
2018-02-23T01:19:09.208Z,12.43
2018-02-23T01:20:14.105Z,13.20
2018-02-23T01:21:18.561Z,12.65
2018-02-23T01:22:23.013Z,12.25
2018-02-23T01:23:27.499Z,12.37
2018-02-23T01:24:31.949Z,12.07
2018-02-23T01:25:37.178Z,14.55
2018-02-23T01:26:41.642Z,12.25
2018-02-23T01:27:46.123Z,12.20
2018-02-23T01:28:51.361Z,11.02
2018-02-23T01:29:55.810Z,11.80
2018-02-23T01:31:00.285Z,11.98
2018-02-23T01:32:04.737Z,11.02
2018-02-23T01:33:09.198Z,11.52
2018-02-23T01:34:14.440Z,11.45
2018-02-23T01:35:18.898Z,12.00
2018-02-23T01:36:23.350Z,11.57
2018-02-23T01:37:27.827Z,11.55
2018-02-23T01:38:33.040Z,11.43
2018-02-23T01:39:37.541Z,11.48
2018-02-23T01:40:42.015Z,12.00
2018-02-23T01:41:47.474Z,11.07
2018-02-23T01:42:51.918Z,11.30
2018-02-23T01:43:56.376Z,10.93
2018-02-23T01:45:00.858Z,11.40
2018-02-23T01:46:05.309Z,11.63
2018-02-23T01:47:09.789Z,10.55
2018-02-23T01:48:15.010Z,11.45
2018-02-23T01:49:19.459Z,11.60
2018-02-23T01:50:23.605Z,12.10
2018-02-23T01:51:28.067Z,11.65
2018-02-23T01:52:32.527Z,11.80
2018-02-23T01:53:36.986Z,10.80
2018-02-23T01:54:41.443Z,11.82
2018-02-23T01:55:45.919Z,11.32
2018-02-23T01:56:50.177Z,10.18
2018-02-23T01:57:54.446Z,12.75
2018-02-23T01:58:58.916Z,12.02
2018-02-23T02:00:03.948Z,12.10
2018-02-23T02:01:09.234Z,12.00
2018-02-23T02:02:13.690Z,11.00
2018-02-23T02:03:18.902Z,11.95
2018-02-23T02:04:24.127Z,11.98
2018-02-23T02:05:28.613Z,12.65
2018-02-23T02:06:33.086Z,12.93
2018-02-23T02:07:37.549Z,11.15
2018-02-23T02:08:41.998Z,11.85
2018-02-23T02:09:46.465Z,12.90
2018-02-23T02:10:50.922Z,11.43
2018-02-23T02:11:55.403Z,12.30
2018-02-23T02:12:59.872Z,12.48
2018-02-23T02:14:04.330Z,11.98
2018-02-23T02:15:08.797Z,11.35
2018-02-23T02:16:13.260Z,13.40
2018-02-23T02:17:18.502Z,11.80
2018-02-23T02:18:23.389Z,13.15
2018-02-23T02:19:27.847Z,13.15
2018-02-23T02:20:31.638Z,11.93
2018-02-23T02:21:35.766Z,12.70
2018-02-23T02:22:39.561Z,14.23
2018-02-23T02:23:44.033Z,12.10
2018-02-23T02:24:49.253Z,13.65
2018-02-23T02:25:53.698Z,13.90
2018-02-23T02:26:58.151Z,11.95
2018-02-23T02:28:02.633Z,13.55
2018-02-23T02:29:06.894Z,12.32
2018-02-23T02:30:12.136Z,12.60
2018-02-23T02:31:16.768Z,11.90
2018-02-23T02:32:21.997Z,12.90
2018-02-23T02:33:26.486Z,11.95
2018-02-23T02:34:31.529Z,12.55
2018-02-23T02:35:36.001Z,12.80
2018-02-23T02:36:40.258Z,13.98
2018-02-23T02:37:44.705Z,12.23
2018-02-23T02:38:49.184Z,12.65
2018-02-23T02:39:53.643Z,13.77
2018-02-23T02:40:57.910Z,13.15
2018-02-23T02:42:02.188Z,13.02
2018-02-23T02:43:06.663Z,12.93
2018-02-23T02:44:11.138Z,12.50
2018-02-23T02:45:15.582Z,14.13
2018-02-23T02:46:20.043Z,13.25
2018-02-23T02:47:24.607Z,12.55
2018-02-23T02:48:29.074Z,13.13
2018-02-23T02:49:33.583Z,13.65
2018-02-23T02:50:38.035Z,12.25
2018-02-23T02:51:42.485Z,11.35
2018-02-23T02:52:47.812Z,13.52
2018-02-23T02:53:53.926Z,13.10
2018-02-23T02:54:58.402Z,13.00
2018-02-23T02:56:02.858Z,14.43
2018-02-23T02:57:07.375Z,12.93
2018-02-23T02:58:11.836Z,13.48
2018-02-23T02:59:16.286Z,13.95
2018-02-23T03:00:20.772Z,12.77
2018-02-23T03:01:25.231Z,13.07
2018-02-23T03:02:29.690Z,13.45
2018-02-23T03:03:34.141Z,14.32
2018-02-23T03:04:38.597Z,12.60
2018-02-23T03:05:43.084Z,13.45
2018-02-23T03:06:48.307Z,13.48
2018-02-23T03:07:52.754Z,13.80
2018-02-23T03:08:57.213Z,13.90
2018-02-23T03:10:01.665Z,12.98
2018-02-23T03:11:06.153Z,14.38
2018-02-23T03:12:11.377Z,13.00
2018-02-23T03:13:16.612Z,13.18
2018-02-23T03:14:21.838Z,13.60
2018-02-23T03:15:27.071Z,13.43
2018-02-23T03:16:32.322Z,12.65
2018-02-23T03:17:36.786Z,13.70
2018-02-23T03:18:41.246Z,14.40
2018-02-23T03:19:45.695Z,12.82
2018-02-23T03:20:50.168Z,13.55
2018-02-23T03:21:55.400Z,14.75
2018-02-23T03:22:59.861Z,12.90
2018-02-23T03:24:04.325Z,13.95
2018-02-23T03:25:08.769Z,14.30
2018-02-23T03:26:13.232Z,13.25
2018-02-23T03:27:17.718Z,13.70
2018-02-23T03:28:23.671Z,13.68
2018-02-23T03:29:28.898Z,13.30
2018-02-23T03:30:33.363Z,15.05
2018-02-23T03:31:37.899Z,14.75
2018-02-23T03:32:42.539Z,13.20
2018-02-23T03:33:46.977Z,14.13
2018-02-23T03:34:51.438Z,13.00
2018-02-23T03:35:55.900Z,13.93
2018-02-23T03:37:00.370Z,12.70
2018-02-23T03:38:04.845Z,13.40
2018-02-23T03:39:09.302Z,14.32
2018-02-23T03:40:13.767Z,12.80
2018-02-23T03:41:18.222Z,13.32
2018-02-23T03:42:24.169Z,14.45
2018-02-23T03:43:28.645Z,12.68
2018-02-23T03:44:33.110Z,13.95
2018-02-23T03:45:38.343Z,13.75
2018-02-23T03:46:43.553Z,14.93
2018-02-23T03:47:47.996Z,12.48
2018-02-23T03:48:52.550Z,14.35
2018-02-23T03:49:57.002Z,12.95
2018-02-23T03:51:02.269Z,12.90
2018-02-23T03:52:06.709Z,13.65
2018-02-23T03:53:11.173Z,13.15
2018-02-23T03:54:15.646Z,14.50
2018-02-23T03:55:20.102Z,13.27
2018-02-23T03:56:24.554Z,14.10
2018-02-23T03:57:29.011Z,12.77
2018-02-23T03:58:33.461Z,14.80
2018-02-23T03:59:37.934Z,13.75
2018-02-23T04:00:42.381Z,13.50
2018-02-23T04:01:46.829Z,13.90
2018-02-23T04:02:51.729Z,12.90
2018-02-23T04:03:56.182Z,12.80
2018-02-23T04:05:01.424Z,13.75
2018-02-23T04:06:05.878Z,13.27
2018-02-23T04:07:10.337Z,13.32
2018-02-23T04:08:14.789Z,13.07
2018-02-23T04:09:19.246Z,13.23
2018-02-23T04:10:24.491Z,14.63
2018-02-23T04:11:29.699Z,14.63
2018-02-23T04:12:34.926Z,13.82
2018-02-23T04:13:40.154Z,13.90
2018-02-23T04:14:44.624Z,14.23
2018-02-23T04:15:49.100Z,12.95
2018-02-23T04:16:54.306Z,14.05
2018-02-23T04:17:59.524Z,13.40
2018-02-23T04:19:03.981Z,12.98
2018-02-23T04:20:08.451Z,13.50
2018-02-23T04:21:14.437Z,13.90
2018-02-23T04:22:18.901Z,13.95
2018-02-23T04:23:23.353Z,14.40
2018-02-23T04:24:27.811Z,14.20
2018-02-23T04:25:33.039Z,13.70
2018-02-23T04:26:37.519Z,13.68
2018-02-23T04:27:41.972Z,15.20
2018-02-23T04:28:46.414Z,14.57
2018-02-23T04:29:51.635Z,13.30
2018-02-23T04:30:56.865Z,14.70
2018-02-23T04:32:02.106Z,15.32
2018-02-23T04:33:06.576Z,13.60
2018-02-23T04:34:11.030Z,14.63
2018-02-23T04:35:15.493Z,14.32
2018-02-23T04:36:19.942Z,13.85
2018-02-23T04:37:25.194Z,14.87
2018-02-23T04:38:29.644Z,14.82
2018-02-23T04:39:33.919Z,14.45
2018-02-23T04:40:38.369Z,12.60
2018-02-23T04:41:43.149Z,14.15
2018-02-23T04:42:47.617Z,14.07
2018-02-23T04:43:52.831Z,15.60
2018-02-23T04:44:58.078Z,13.65
2018-02-23T04:46:03.310Z,14.73
2018-02-23T04:47:07.995Z,13.23
2018-02-23T04:48:12.794Z,13.88
2018-02-23T04:49:17.251Z,14.43
2018-02-23T04:50:22.041Z,13.85
2018-02-23T04:51:26.760Z,15.30
2018-02-23T04:52:31.228Z,15.20
2018-02-23T04:53:36.273Z,13.98
2018-02-23T04:54:40.773Z,14.35
2018-02-23T04:55:45.336Z,15.52
2018-02-23T04:56:49.808Z,14.55
2018-02-23T04:57:54.718Z,14.63
2018-02-23T04:58:59.207Z,13.32
2018-02-23T05:00:03.386Z,14.38
2018-02-23T05:01:07.650Z,16.08
2018-02-23T05:02:12.101Z,14.90
2018-02-23T05:03:16.554Z,14.73
2018-02-23T05:04:21.030Z,15.60
2018-02-23T05:05:25.312Z,14.82
2018-02-23T05:06:29.761Z,15.57
2018-02-23T05:07:34.213Z,15.40
2018-02-23T05:08:38.661Z,14.43
2018-02-23T05:09:43.129Z,15.40
2018-02-23T05:10:47.696Z,14.40
2018-02-23T05:11:52.299Z,14.10
2018-02-23T05:12:56.767Z,13.57
2018-02-23T05:14:01.210Z,14.50
2018-02-23T05:15:05.702Z,13.95
2018-02-23T05:16:09.975Z,17.00
2018-02-23T05:17:15.209Z,18.45
2018-02-23T05:18:19.659Z,14.05
2018-02-23T05:19:23.925Z,17.10
2018-02-23T05:20:28.421Z,14.77
2018-02-23T05:21:32.682Z,15.32
2018-02-23T05:22:37.144Z,14.48
2018-02-23T05:23:41.614Z,13.75
2018-02-23T05:24:46.072Z,15.13
2018-02-23T05:25:51.325Z,14.48
2018-02-23T05:26:55.774Z,14.00
2018-02-23T05:28:01.002Z,12.75
2018-02-23T05:29:05.270Z,14.48
2018-02-23T05:30:09.718Z,15.23
2018-02-23T05:31:14.006Z,14.87
2018-02-23T05:32:18.442Z,15.68
2018-02-23T05:33:22.902Z,13.77
2018-02-23T05:34:27.359Z,13.05
2018-02-23T05:35:31.817Z,13.00
2018-02-23T05:36:37.057Z,13.60
2018-02-23T05:37:41.600Z,14.68
2018-02-23T05:38:46.046Z,14.77
2018-02-23T05:39:50.490Z,14.27
2018-02-23T05:40:54.949Z,14.50
2018-02-23T05:41:59.454Z,12.93
2018-02-23T05:43:03.909Z,12.77
2018-02-23T05:44:08.377Z,14.63
2018-02-23T05:45:12.830Z,14.00
2018-02-23T05:46:17.297Z,13.85
2018-02-23T05:47:21.770Z,14.25
2018-02-23T05:48:26.224Z,13.15
2018-02-23T05:49:30.684Z,14.45
2018-02-23T05:50:35.165Z,13.70
2018-02-23T05:51:39.625Z,14.48
2018-02-23T05:52:44.102Z,14.13
2018-02-23T05:53:49.318Z,14.57
2018-02-23T05:54:53.784Z,14.70
2018-02-23T05:55:58.243Z,13.93
2018-02-23T05:57:03.479Z,12.40
2018-02-23T05:58:07.957Z,13.40
2018-02-23T05:59:12.418Z,14.70
2018-02-23T06:00:17.630Z,15.15
2018-02-23T06:01:22.856Z,15.57
2018-02-23T06:02:28.082Z,15.90
2018-02-23T06:03:33.325Z,16.05
2018-02-23T06:04:38.533Z,14.52
2018-02-23T06:05:43.750Z,15.70
2018-02-23T06:06:48.205Z,14.05
2018-02-23T06:07:52.699Z,13.93
2018-02-23T06:08:57.156Z,13.52
2018-02-23T06:10:01.598Z,14.65
2018-02-23T06:11:06.252Z,16.17
2018-02-23T06:12:10.893Z,17.05
2018-02-23T06:13:15.344Z,15.05
2018-02-23T06:14:19.831Z,16.98
2018-02-23T06:15:24.702Z,16.25
2018-02-23T06:16:29.927Z,17.67
2018-02-23T06:17:39.802Z,16.95
2018-02-23T06:18:49.406Z,15.13
2018-02-23T06:19:59.362Z,17.15
2018-02-23T06:21:03.823Z,16.98
2018-02-23T06:22:08.290Z,16.23
2018-02-23T06:23:12.747Z,18.50
2018-02-23T06:24:17.957Z,17.45
2018-02-23T06:25:22.440Z,17.37
2018-02-23T06:26:26.902Z,16.62
2018-02-23T06:27:31.349Z,17.00
2018-02-23T06:28:35.823Z,19.08
2018-02-23T06:29:41.044Z,19.50
2018-02-23T06:30:45.515Z,18.15
2018-02-23T06:31:49.996Z,19.33
2018-02-23T06:32:55.201Z,19.37
2018-02-23T06:33:59.657Z,18.70
2018-02-23T06:35:04.107Z,18.80
2018-02-23T06:36:08.590Z,17.62
2018-02-23T06:37:13.035Z,18.33
2018-02-23T06:38:18.249Z,17.55
2018-02-23T06:39:22.698Z,19.35
2018-02-23T06:40:27.917Z,18.67
2018-02-23T06:41:32.398Z,20.17
2018-02-23T06:42:36.850Z,20.20
2018-02-23T06:43:42.072Z,19.27
2018-02-23T06:44:46.526Z,19.77
2018-02-23T06:45:50.976Z,19.12
2018-02-23T06:47:01.017Z,19.70
2018-02-23T06:48:05.477Z,19.25
2018-02-23T06:49:09.930Z,20.42
2018-02-23T06:50:14.381Z,20.00
2018-02-23T06:51:19.605Z,19.90
2018-02-23T06:52:24.892Z,22.17
2018-02-23T06:53:29.524Z,19.10
2018-02-23T06:54:33.975Z,20.40
2018-02-23T06:55:38.426Z,19.12
2018-02-23T06:56:42.893Z,21.02
2018-02-23T06:57:47.958Z,19.62
2018-02-23T06:58:52.425Z,19.62
2018-02-23T06:59:56.886Z,20.30
2018-02-23T07:01:01.340Z,22.87
2018-02-23T07:02:06.557Z,20.88
2018-02-23T07:03:11.807Z,19.10
2018-02-23T07:04:17.025Z,20.88
2018-02-23T07:05:22.256Z,18.40
2018-02-23T07:06:27.477Z,19.70
2018-02-23T07:07:31.932Z,19.10
2018-02-23T07:08:36.411Z,20.08
2018-02-23T07:09:41.634Z,19.05
2018-02-23T07:10:46.966Z,20.02
2018-02-23T07:11:51.573Z,20.95
2018-02-23T07:12:56.808Z,18.10
2018-02-23T07:14:02.128Z,16.75
2018-02-23T07:15:07.365Z,19.58
2018-02-23T07:16:11.633Z,18.55
2018-02-23T07:17:16.086Z,20.80
2018-02-23T07:18:21.312Z,14.68
2018-02-23T07:19:25.790Z,14.00
2018-02-23T07:20:30.238Z,17.33
2018-02-23T07:21:35.457Z,21.90
2018-02-23T07:22:39.914Z,21.02
2018-02-23T07:23:44.384Z,19.25
2018-02-23T07:24:49.626Z,20.85
2018-02-23T07:25:54.922Z,20.52
2018-02-23T07:26:59.377Z,20.17
2018-02-23T07:28:03.829Z,18.45
2018-02-23T07:29:08.278Z,20.55
2018-02-23T07:30:12.745Z,22.15
2018-02-23T07:31:17.197Z,20.15
2018-02-23T07:32:21.654Z,21.70
2018-02-23T07:33:26.106Z,18.90
2018-02-23T07:34:30.369Z,21.27
2018-02-23T07:35:34.835Z,21.50
2018-02-23T07:36:39.872Z,20.70
2018-02-23T07:37:45.093Z,21.60
2018-02-23T07:38:50.322Z,21.67
2018-02-23T07:39:55.544Z,20.62
2018-02-23T07:41:00.026Z,20.40
2018-02-23T07:42:04.470Z,23.12
2018-02-23T07:43:08.941Z,20.85
2018-02-23T07:44:13.391Z,21.00
2018-02-23T07:45:17.855Z,18.87
2018-02-23T07:46:22.329Z,21.42
2018-02-23T07:47:27.546Z,23.90
2018-02-23T07:48:32.002Z,21.23
2018-02-23T07:49:36.545Z,22.37
2018-02-23T07:50:40.806Z,21.75
2018-02-23T07:51:45.113Z,20.45
2018-02-23T07:52:49.573Z,18.50
2018-02-23T07:53:54.028Z,21.92
2018-02-23T07:54:58.482Z,19.20
2018-02-23T07:56:02.769Z,22.60
2018-02-23T07:57:07.241Z,21.70
2018-02-23T07:58:12.273Z,18.20
2018-02-23T07:59:17.284Z,21.95
2018-02-23T08:00:22.321Z,20.77
2018-02-23T08:01:27.542Z,22.87
2018-02-23T08:02:32.787Z,21.55
2018-02-23T08:03:37.233Z,23.40
2018-02-23T08:04:41.700Z,20.75
2018-02-23T08:05:46.744Z,21.67
2018-02-23T08:06:51.189Z,22.10
2018-02-23T08:07:55.383Z,22.20
2018-02-23T08:09:00.761Z,22.52
2018-02-23T08:10:05.655Z,24.17
2018-02-23T08:11:10.100Z,24.45
2018-02-23T08:12:15.332Z,23.02
2018-02-23T08:13:20.564Z,18.37
2018-02-23T08:14:25.595Z,19.45
2018-02-23T08:15:30.806Z,21.80
2018-02-23T08:16:36.035Z,23.08
2018-02-23T08:17:40.477Z,20.85
2018-02-23T08:18:44.959Z,20.88
2018-02-23T08:19:50.178Z,19.02
2018-02-23T08:20:54.628Z,22.10
2018-02-23T08:21:58.889Z,22.80
2018-02-23T08:23:03.343Z,21.48
2018-02-23T08:24:07.805Z,22.27
2018-02-23T08:25:12.312Z,23.12
2018-02-23T08:26:16.745Z,17.80
2018-02-23T08:27:21.959Z,24.75
2018-02-23T08:28:26.407Z,23.20
2018-02-23T08:29:31.634Z,23.10
2018-02-23T08:31:37.166Z,25.17
2018-02-23T08:32:42.372Z,27.27
2018-02-23T08:33:46.822Z,21.67
2018-02-23T08:34:51.286Z,24.40
2018-02-23T08:35:55.556Z,21.52
2018-02-23T08:36:59.991Z,25.10
2018-02-23T08:38:04.442Z,21.87
2018-02-23T08:39:08.900Z,23.62
2018-02-23T08:40:13.377Z,20.77
2018-02-23T08:41:18.590Z,23.45
2018-02-23T08:42:23.814Z,23.10
2018-02-23T08:43:29.770Z,25.48
2018-02-23T08:44:34.982Z,25.10
2018-02-23T08:45:39.441Z,25.27
2018-02-23T08:46:43.881Z,24.08
2018-02-23T08:47:48.316Z,26.30
2018-02-23T08:48:52.762Z,25.90
2018-02-23T08:49:57.957Z,25.60
2018-02-23T08:51:02.436Z,23.17
2018-02-23T08:52:06.881Z,22.20
2018-02-23T08:53:11.327Z,25.15
2018-02-23T08:54:15.786Z,26.50
2018-02-23T08:55:20.214Z,26.62
2018-02-23T08:56:24.702Z,25.80
2018-02-23T08:57:29.154Z,20.55
2018-02-23T08:58:34.363Z,22.98
2018-02-23T08:59:38.805Z,23.75
2018-02-23T09:00:48.031Z,25.45
2018-02-23T09:01:53.255Z,26.20
2018-02-23T09:02:58.463Z,28.02
2018-02-23T09:04:02.905Z,25.37
2018-02-23T09:05:07.349Z,19.10
2018-02-23T09:06:11.806Z,22.65
2018-02-23T09:07:17.035Z,26.10
2018-02-23T09:08:22.253Z,26.17
2018-02-23T09:09:27.467Z,25.25
2018-02-23T09:10:31.915Z,25.65
2018-02-23T09:11:36.362Z,25.17
2018-02-23T09:12:40.914Z,25.55
2018-02-23T09:13:45.171Z,23.17
2018-02-23T09:14:49.609Z,20.30
2018-02-23T09:15:54.057Z,25.73
2018-02-23T09:16:59.256Z,25.85
2018-02-23T09:18:03.730Z,21.40
2018-02-23T09:19:08.176Z,27.20
2018-02-23T09:20:12.617Z,23.55
2018-02-23T09:21:17.849Z,26.52
2018-02-23T09:22:23.058Z,27.20
2018-02-23T09:23:27.535Z,26.50
2018-02-23T09:24:32.061Z,28.48
2018-02-23T09:25:36.496Z,27.95
2018-02-23T09:26:40.948Z,29.23
2018-02-23T09:27:45.405Z,27.23
2018-02-23T09:28:49.874Z,23.00
2018-02-23T09:29:54.387Z,22.20
2018-02-23T09:30:58.834Z,22.65
2018-02-23T09:32:03.385Z,27.37
2018-02-23T09:33:07.533Z,27.25
2018-02-23T09:34:23.375Z,24.30
2018-02-23T09:35:27.819Z,23.48
2018-02-23T09:36:32.265Z,26.70
2018-02-23T09:37:36.710Z,26.33
2018-02-23T09:38:41.151Z,25.92
2018-02-23T09:39:45.632Z,25.05
2018-02-23T09:40:50.839Z,25.40
2018-02-23T09:41:56.045Z,25.10
2018-02-23T09:43:00.506Z,24.98
2018-02-23T09:44:04.990Z,24.55
2018-02-23T09:45:10.238Z,23.33
2018-02-23T09:46:14.686Z,23.65
2018-02-23T09:47:19.130Z,25.25
2018-02-23T09:48:23.591Z,29.27
2018-02-23T09:49:28.048Z,26.33
2018-02-23T09:50:32.503Z,25.95
2018-02-23T09:51:36.950Z,23.98
2018-02-23T09:52:41.398Z,24.77
2018-02-23T09:53:45.838Z,26.83
2018-02-23T09:54:50.286Z,25.10
2018-02-23T09:55:54.737Z,26.12
2018-02-23T09:56:59.945Z,25.98
2018-02-23T09:58:04.050Z,25.02
2018-02-23T09:59:09.262Z,25.35
2018-02-23T10:00:13.709Z,27.33
2018-02-23T10:01:18.186Z,27.65
2018-02-23T10:02:22.626Z,26.05
2018-02-23T10:03:27.842Z,26.52
2018-02-23T10:04:33.047Z,21.50
2018-02-23T10:05:37.493Z,21.42
2018-02-23T10:06:42.759Z,23.50
2018-02-23T10:07:47.198Z,24.75
2018-02-23T10:08:51.646Z,25.48
2018-02-23T10:09:56.862Z,25.67
2018-02-23T10:11:01.449Z,26.98
2018-02-23T10:12:05.925Z,26.70
2018-02-23T10:13:10.372Z,25.88
2018-02-23T10:14:14.810Z,24.70
2018-02-23T10:15:19.255Z,25.05
2018-02-23T10:16:23.689Z,24.95
2018-02-23T10:17:28.153Z,26.08
2018-02-23T10:18:33.173Z,27.15
2018-02-23T10:19:38.397Z,22.17
2018-02-23T10:20:42.825Z,24.60
2018-02-23T10:21:47.266Z,23.23
2018-02-23T10:22:51.739Z,23.38
2018-02-23T10:23:56.959Z,24.83
2018-02-23T10:25:01.394Z,26.92
2018-02-23T10:26:05.848Z,23.73
2018-02-23T10:27:10.290Z,19.50
2018-02-23T10:28:15.527Z,27.40
2018-02-23T10:29:20.733Z,21.15
2018-02-23T10:30:25.182Z,27.08
2018-02-23T10:31:29.622Z,27.27
2018-02-23T10:32:34.073Z,23.02
2018-02-23T10:33:39.310Z,25.58
2018-02-23T10:34:44.351Z,22.33
2018-02-23T10:35:49.364Z,25.77
2018-02-23T10:36:54.380Z,25.00
2018-02-23T10:37:58.818Z,27.15
2018-02-23T10:39:02.953Z,25.27
2018-02-23T10:40:07.217Z,27.00
2018-02-23T10:41:12.413Z,26.05
2018-02-23T10:42:16.676Z,24.20
2018-02-23T10:43:20.938Z,28.02
2018-02-23T10:44:25.214Z,26.08
2018-02-23T10:45:29.673Z,27.23
2018-02-23T10:46:33.936Z,21.65
2018-02-23T10:47:38.380Z,27.45
2018-02-23T10:48:43.581Z,26.58
2018-02-23T10:49:47.718Z,28.55
2018-02-23T10:50:52.924Z,28.58
2018-02-23T10:51:57.182Z,24.55
2018-02-23T10:53:01.615Z,27.75
2018-02-23T10:54:05.881Z,26.00
2018-02-23T10:55:11.102Z,29.30
2018-02-23T10:56:15.545Z,27.30
2018-02-23T10:57:19.808Z,24.67
2018-02-23T10:58:25.005Z,25.15
2018-02-23T10:59:29.271Z,22.80
2018-02-23T11:00:33.562Z,27.23
2018-02-23T11:01:38.581Z,26.65
2018-02-23T11:02:43.781Z,24.85
2018-02-23T11:03:48.218Z,25.77
2018-02-23T11:04:53.433Z,25.25
2018-02-23T11:05:57.897Z,25.30
2018-02-23T11:07:02.167Z,26.12
2018-02-23T11:08:07.370Z,25.67
2018-02-23T11:09:11.914Z,25.83
2018-02-23T11:10:17.122Z,26.60
2018-02-23T11:11:21.594Z,20.88
2018-02-23T11:12:26.047Z,25.77
2018-02-23T11:13:30.495Z,26.73
2018-02-23T11:14:34.942Z,29.75
2018-02-23T11:15:39.390Z,26.40
2018-02-23T11:16:44.629Z,25.98
2018-02-23T11:17:49.825Z,26.20
2018-02-23T11:18:54.269Z,25.45
2018-02-23T11:19:58.534Z,26.80
2018-02-23T11:21:02.978Z,29.40
2018-02-23T11:22:07.881Z,29.30
2018-02-23T11:23:12.326Z,27.33
2018-02-23T11:24:16.774Z,21.90
2018-02-23T11:25:21.226Z,24.08
2018-02-23T11:26:26.426Z,24.65
2018-02-23T11:27:30.893Z,24.48
2018-02-23T11:28:35.353Z,22.90
2018-02-23T11:29:39.798Z,27.20
2018-02-23T11:30:44.255Z,19.73
2018-02-23T11:31:48.698Z,18.62
2018-02-23T11:32:53.940Z,21.20
2018-02-23T11:33:59.163Z,23.62
2018-02-23T11:35:03.603Z,24.90
2018-02-23T11:36:08.060Z,22.10
2018-02-23T11:37:12.505Z,20.52
2018-02-23T11:38:17.741Z,22.20
2018-02-23T11:39:22.198Z,19.30
2018-02-23T11:40:26.648Z,21.87
2018-02-23T11:41:30.783Z,23.08
2018-02-23T11:42:35.233Z,20.58
2018-02-23T11:43:39.380Z,25.92
2018-02-23T11:44:44.596Z,18.50
2018-02-23T11:45:49.033Z,26.83
2018-02-23T11:46:53.492Z,28.30
2018-02-23T11:47:57.942Z,23.87
2018-02-23T11:49:02.444Z,27.02
2018-02-23T11:50:07.687Z,27.70
2018-02-23T11:51:12.135Z,26.52
2018-02-23T11:52:16.594Z,27.40
2018-02-23T11:53:21.802Z,23.83
2018-02-23T11:54:26.290Z,27.00
2018-02-23T11:55:30.747Z,28.83
2018-02-23T11:56:35.954Z,29.05
2018-02-23T11:57:45.457Z,26.17
2018-02-23T11:58:49.905Z,31.05
2018-02-23T11:59:55.147Z,27.98
2018-02-23T12:01:00.370Z,27.77
2018-02-23T12:02:05.602Z,21.98
2018-02-23T12:03:10.820Z,20.27
2018-02-23T12:04:16.043Z,22.75
2018-02-23T12:05:20.501Z,26.40
2018-02-23T12:06:24.959Z,20.37
2018-02-23T12:07:29.403Z,27.95
2018-02-23T12:08:34.708Z,23.83
2018-02-23T12:09:39.156Z,24.52
2018-02-23T12:10:43.635Z,22.67
2018-02-23T12:11:48.064Z,26.40
2018-02-23T12:12:53.307Z,24.50
2018-02-23T12:13:57.735Z,26.10
2018-02-23T12:15:02.189Z,27.13
2018-02-23T12:16:06.649Z,20.80
2018-02-23T12:17:11.116Z,22.45
2018-02-23T12:18:15.570Z,25.25
2018-02-23T12:19:20.022Z,24.60
2018-02-23T12:20:24.472Z,18.45
2018-02-23T12:21:29.715Z,23.17
2018-02-23T12:22:34.378Z,19.65
2018-02-23T12:23:38.833Z,21.10
2018-02-23T12:24:43.287Z,18.20
2018-02-23T12:25:47.731Z,24.77
2018-02-23T12:26:52.202Z,23.55
2018-02-23T12:27:56.656Z,25.15
2018-02-23T12:29:01.874Z,22.95
2018-02-23T12:30:06.331Z,25.30
2018-02-23T12:31:10.767Z,27.70
2018-02-23T12:32:15.230Z,26.42
2018-02-23T12:33:19.678Z,19.62
2018-02-23T12:34:24.122Z,24.52
2018-02-23T12:35:29.362Z,23.45
2018-02-23T12:36:33.985Z,26.17
2018-02-23T12:37:39.217Z,25.10
2018-02-23T12:38:44.429Z,25.10
2018-02-23T12:39:48.865Z,23.85
2018-02-23T12:40:54.067Z,25.60
2018-02-23T12:41:58.184Z,24.75
2018-02-23T12:43:02.646Z,24.17
2018-02-23T12:44:07.086Z,25.75
2018-02-23T12:45:11.529Z,25.83
2018-02-23T12:46:16.756Z,26.33
2018-02-23T12:47:21.214Z,22.52
2018-02-23T12:48:25.686Z,24.00
2018-02-23T12:49:30.907Z,25.50
2018-02-23T12:50:36.166Z,24.65
2018-02-23T12:51:40.631Z,23.85
2018-02-23T12:52:45.062Z,24.55
2018-02-23T12:53:50.302Z,24.63
2018-02-23T12:54:54.858Z,23.92
2018-02-23T12:55:59.304Z,25.23
2018-02-23T12:57:03.747Z,24.85
2018-02-23T12:58:08.202Z,24.70
2018-02-23T12:59:12.701Z,26.08
2018-02-23T13:00:17.148Z,26.35
2018-02-23T13:01:21.903Z,25.30
2018-02-23T13:02:26.344Z,22.90
2018-02-23T13:03:30.833Z,20.40
2018-02-23T13:04:35.482Z,23.98
2018-02-23T13:05:39.631Z,23.62
2018-02-23T13:06:45.009Z,24.08
2018-02-23T13:07:49.461Z,23.17
2018-02-23T13:08:54.677Z,26.55
2018-02-23T13:09:58.962Z,22.77
2018-02-23T13:11:03.416Z,24.15
2018-02-23T13:12:07.530Z,22.37
2018-02-23T13:13:11.979Z,25.08
2018-02-23T13:14:16.233Z,24.10
2018-02-23T13:15:20.712Z,23.27
2018-02-23T13:16:29.181Z,24.12
2018-02-23T13:17:33.626Z,24.85
2018-02-23T13:18:38.073Z,24.48
2018-02-23T13:19:42.524Z,24.33
2018-02-23T13:20:46.985Z,25.15
2018-02-23T13:21:52.017Z,25.92
2018-02-23T13:22:56.472Z,24.12
2018-02-23T13:24:01.032Z,20.45
2018-02-23T13:25:06.313Z,22.87
2018-02-23T13:26:10.819Z,23.62
2018-02-23T13:27:20.116Z,23.25
2018-02-23T13:28:29.954Z,22.13
2018-02-23T13:29:34.407Z,22.25
2018-02-23T13:30:38.866Z,23.50
2018-02-23T13:31:43.006Z,22.55
2018-02-23T13:32:47.284Z,22.80
2018-02-23T13:33:51.740Z,22.15
2018-02-23T13:34:56.169Z,23.58
2018-02-23T13:36:00.625Z,23.92
2018-02-23T13:37:05.098Z,20.88
2018-02-23T13:38:09.537Z,16.50
2018-02-23T13:39:13.986Z,21.90
2018-02-23T13:40:18.050Z,21.92
2018-02-23T13:41:27.982Z,22.55
2018-02-23T13:42:33.020Z,24.48
2018-02-23T13:43:37.461Z,25.20
2018-02-23T13:44:42.245Z,21.48
2018-02-23T13:45:46.495Z,19.12
2018-02-23T13:46:50.941Z,23.77
2018-02-23T13:47:55.990Z,20.95
2018-02-23T13:49:00.434Z,21.20
2018-02-23T13:50:04.834Z,20.48
2018-02-23T13:51:09.094Z,20.77
2018-02-23T13:52:14.316Z,20.80
2018-02-23T13:53:18.585Z,20.58
2018-02-23T13:54:24.679Z,17.40
2018-02-23T13:55:29.890Z,15.88